This is the latest recevied weather packets stored in our database for station/object KB1FFS. If no packets are shown the sender has not sent any weather packets the latest 1 day(s).
| Time | Temp. | Humidity | Pressure | Rain* | Wind** | Luminosity | Snow |
|---|---|---|---|---|---|---|---|
| 1836274772 | 27.78° C | 61% | 1016.5 hPa | 0 mm | 0.45 m/s, 121° | 0 W/m² | - |
| 1836274470 | 27.78° C | 61% | 1016.9 hPa | 0 mm | 0 m/s | 0 W/m² | - |
| 1836274324 | 27.78° C | 61% | 1017 hPa | 0 mm | 0 m/s | 0 W/m² | - |
| 1836274168 | 27.78° C | 61% | 1016.7 hPa | 0 mm | 0 m/s | 0 W/m² | - |
| 1778051258 | 15.56° C | 72% | 1011.1 hPa | 0 mm | 1.79 m/s, 150° | 0 W/m² | - |
| 1778050955 | 15.56° C | 72% | 1011.1 hPa | 0 mm | 1.79 m/s, 138° | 0 W/m² | - |
| 1778050653 | 15.56° C | 71% | 1011.1 hPa | 0 mm | 1.34 m/s, 175° | 0 W/m² | - |
| 1778050350 | 15.56° C | 71% | 1011.2 hPa | 0 mm | 1.34 m/s, 175° | 0 W/m² | - |
| 1778050046 | 15.56° C | 71% | 1010.9 hPa | 0 mm | 0.89 m/s, 145° | 0 W/m² | - |
| 1778049742 | 15.56° C | 71% | 1011.1 hPa | 0 mm | 0.89 m/s, 120° | 0 W/m² | - |
| 1778049440 | 15.56° C | 71% | 1011.5 hPa | 0 mm | 0.89 m/s, 151° | 0 W/m² | - |
| 1778049137 | 15.56° C | 71% | 1011.1 hPa | 0 mm | 1.79 m/s, 138° | 0 W/m² | - |
| 1778048836 | 16.11° C | 72% | 1011.4 hPa | 0 mm | 0.45 m/s, 78° | 0 W/m² | - |
| 1778048532 | 16.11° C | 72% | 1011.4 hPa | 0 mm | 0.89 m/s, 133° | 0 W/m² | - |
| 1778048228 | 16.11° C | 71% | 1011.1 hPa | 0 mm | 1.79 m/s, 136° | 0 W/m² | - |
| 1778047926 | 16.11° C | 72% | 1011.2 hPa | 0 mm | 1.34 m/s, 145° | 0 W/m² | - |
| 1778047624 | 16.11° C | 72% | 1011.1 hPa | 0 mm | 0.45 m/s, 124° | 0 W/m² | - |
| 1778047320 | 16.11° C | 72% | 1011.1 hPa | 0 mm | 0.89 m/s, 104° | 0 W/m² | - |
| 1778047018 | 16.11° C | 72% | 1011.4 hPa | 0 mm | 0.89 m/s, 78° | 0 W/m² | - |
| 1778046715 | 16.67° C | 73% | 1011.4 hPa | 0 mm | 0.89 m/s, 155° | 0 W/m² | - |
| 1778046412 | 16.67° C | 73% | 1011.1 hPa | 0 mm | 0.89 m/s, 155° | 0 W/m² | - |
| 1778046108 | 16.67° C | 73% | 1011 hPa | 0 mm | 0 m/s | 0 W/m² | - |
| 1778045805 | 16.67° C | 73% | 1011.2 hPa | 0 mm | 0 m/s | 0 W/m² | - |
| 1778045504 | 16.67° C | 73% | 1011.4 hPa | 0 mm | 0.89 m/s, 127° | 0 W/m² | - |
| 1778045202 | 16.67° C | 73% | 1011.2 hPa | 0 mm | 0.45 m/s, 103° | 0 W/m² | - |
* Rain latest hour (hover to see other rain measurements)
** Current wind speed in m/s (hover to see current wind gust speed)